createdAt,value
2019-05-10T00:00:05.425Z,12.83
2019-05-10T00:01:05.413Z,12.85
2019-05-10T00:02:05.444Z,12.83
2019-05-10T00:03:05.399Z,12.82
2019-05-10T00:04:05.394Z,12.83
2019-05-10T00:05:05.381Z,12.85
2019-05-10T00:06:05.365Z,12.79
2019-05-10T00:07:05.366Z,12.79
2019-05-10T00:08:05.332Z,12.95
2019-05-10T00:09:05.336Z,12.95
2019-05-10T00:10:05.314Z,12.85
2019-05-10T00:11:05.317Z,12.87
2019-05-10T00:12:05.324Z,12.89
2019-05-10T00:13:05.281Z,12.83
2019-05-10T00:14:05.274Z,12.90
2019-05-10T00:15:05.262Z,12.90
2019-05-10T00:16:05.254Z,12.85
2019-05-10T00:17:05.274Z,12.92
2019-05-10T00:18:05.225Z,12.93
2019-05-10T00:19:05.226Z,12.85
2019-05-10T00:20:05.219Z,12.93
2019-05-10T00:21:05.227Z,12.95
2019-05-10T00:22:05.199Z,12.95
2019-05-10T00:23:05.181Z,12.95
2019-05-10T00:24:05.173Z,12.85
2019-05-10T00:25:05.416Z,12.89
2019-05-10T00:26:05.142Z,12.95
2019-05-10T00:27:05.204Z,13.01
2019-05-10T00:28:05.120Z,13.05
2019-05-10T00:29:05.099Z,12.92
2019-05-10T00:30:05.105Z,12.92
2019-05-10T00:31:05.086Z,12.92
2019-05-10T00:32:05.078Z,13.04
2019-05-10T00:33:05.093Z,13.05
2019-05-10T00:34:05.048Z,12.97
2019-05-10T00:35:05.034Z,12.96
2019-05-10T00:36:05.032Z,13.05
2019-05-10T00:37:05.029Z,12.96
2019-05-10T00:38:05.032Z,13.00
2019-05-10T00:39:05.001Z,13.05
2019-05-10T00:40:05.003Z,13.00
2019-05-10T00:41:04.968Z,13.03
2019-05-10T00:42:04.964Z,13.03
2019-05-10T00:43:04.963Z,13.03
2019-05-10T00:44:04.931Z,13.01
2019-05-10T00:45:04.925Z,12.93
2019-05-10T00:46:04.912Z,12.96
2019-05-10T00:47:04.904Z,12.95
2019-05-10T00:48:04.912Z,12.97
2019-05-10T00:49:04.891Z,13.00
2019-05-10T00:50:04.867Z,13.00
2019-05-10T00:51:04.862Z,12.95
2019-05-10T00:52:04.849Z,12.89
2019-05-10T00:53:04.925Z,12.92
2019-05-10T00:54:04.828Z,13.04
2019-05-10T00:55:17.957Z,13.05
2019-05-10T00:56:05.832Z,12.96
2019-05-10T00:57:04.785Z,13.05
2019-05-10T00:58:04.791Z,13.03
2019-05-10T00:59:04.789Z,13.05
2019-05-10T01:00:04.758Z,13.05
2019-05-10T01:01:04.742Z,13.01
2019-05-10T01:02:04.737Z,13.03
2019-05-10T01:03:04.721Z,13.04
2019-05-10T01:04:04.727Z,13.04
2019-05-10T01:05:04.714Z,13.07
2019-05-10T01:06:04.703Z,13.03
2019-05-10T01:07:04.682Z,13.04
2019-05-10T01:08:04.682Z,13.03
2019-05-10T01:09:04.692Z,13.00
2019-05-10T01:10:04.642Z,12.92
2019-05-10T01:11:04.635Z,13.03
2019-05-10T01:12:04.622Z,13.00
2019-05-10T01:13:04.616Z,12.95
2019-05-10T01:14:04.623Z,12.92
2019-05-10T01:15:04.590Z,12.97
2019-05-10T01:16:04.580Z,12.96
2019-05-10T01:17:04.578Z,13.03
2019-05-10T01:18:04.565Z,12.95
2019-05-10T01:19:04.562Z,12.93
2019-05-10T01:20:04.538Z,12.95
2019-05-10T01:21:04.520Z,12.79
2019-05-10T01:22:04.513Z,12.89
2019-05-10T01:23:04.516Z,12.90
2019-05-10T01:24:04.506Z,12.95
2019-05-10T01:25:04.480Z,12.96
2019-05-10T01:26:04.502Z,12.77
2019-05-10T01:27:04.458Z,12.86
2019-05-10T01:28:04.471Z,12.85
2019-05-10T01:29:04.463Z,12.89
2019-05-10T01:30:04.423Z,12.92
2019-05-10T01:31:04.420Z,12.97
2019-05-10T01:32:04.403Z,12.95
2019-05-10T01:33:04.395Z,12.93
2019-05-10T01:34:04.403Z,12.95
2019-05-10T01:35:04.364Z,12.95
2019-05-10T01:36:04.352Z,12.95
2019-05-10T01:37:04.351Z,12.92
2019-05-10T01:38:04.355Z,12.85
2019-05-10T01:39:04.338Z,12.87
2019-05-10T01:40:04.308Z,12.87
2019-05-10T01:41:04.296Z,12.90
2019-05-10T01:42:04.282Z,12.95
2019-05-10T01:43:04.277Z,12.95
2019-05-10T01:44:04.284Z,12.86
2019-05-10T01:45:04.264Z,12.95
2019-05-10T01:46:04.240Z,12.89
2019-05-10T01:47:04.232Z,12.87
2019-05-10T01:48:04.227Z,12.86
2019-05-10T01:49:04.237Z,12.79
2019-05-10T01:50:04.198Z,12.93
2019-05-10T01:51:04.199Z,12.93
2019-05-10T01:52:04.186Z,12.83
2019-05-10T01:53:04.164Z,12.89
2019-05-10T01:54:04.184Z,12.79
2019-05-10T01:55:04.142Z,12.93
2019-05-10T01:56:04.134Z,12.93
2019-05-10T01:57:04.122Z,12.93
2019-05-10T01:58:04.112Z,12.86
2019-05-10T01:59:04.163Z,12.92
2019-05-10T02:00:04.130Z,12.87
2019-05-10T02:01:04.082Z,13.01
2019-05-10T02:02:04.081Z,12.92
2019-05-10T02:03:04.064Z,12.87
2019-05-10T02:04:04.048Z,12.86
2019-05-10T02:05:04.064Z,12.95
2019-05-10T02:06:04.040Z,13.00
2019-05-10T02:07:04.015Z,12.89
2019-05-10T02:08:04.004Z,13.01
2019-05-10T02:09:03.988Z,12.96
2019-05-10T02:10:03.993Z,12.90
2019-05-10T02:11:03.961Z,13.01
2019-05-10T02:12:03.957Z,12.93
2019-05-10T02:13:03.945Z,12.95
2019-05-10T02:14:03.949Z,12.97
2019-05-10T02:15:03.942Z,12.96
2019-05-10T02:16:03.910Z,12.89
2019-05-10T02:17:03.897Z,13.01
2019-05-10T02:18:03.895Z,12.93
2019-05-10T02:19:03.880Z,13.01
2019-05-10T02:20:03.897Z,12.92
2019-05-10T02:21:03.850Z,13.05
2019-05-10T02:22:03.844Z,12.97
2019-05-10T02:23:03.832Z,12.92
2019-05-10T02:24:03.825Z,12.97
2019-05-10T02:25:03.887Z,13.03
2019-05-10T02:26:09.434Z,12.95
2019-05-10T02:27:04.783Z,12.92
2019-05-10T02:28:03.785Z,12.93
2019-05-10T02:29:03.770Z,13.03
2019-05-10T02:30:04.639Z,13.01
2019-05-10T02:31:03.754Z,13.03
2019-05-10T02:32:03.732Z,12.93
2019-05-10T02:33:03.718Z,13.04
2019-05-10T02:34:03.707Z,13.01
2019-05-10T02:35:03.733Z,13.04
2019-05-10T02:36:03.736Z,12.95
2019-05-10T02:37:03.683Z,12.96
2019-05-10T02:38:03.671Z,13.04
2019-05-10T02:39:03.653Z,13.01
2019-05-10T02:40:03.655Z,13.04
2019-05-10T02:41:03.633Z,13.05
2019-05-10T02:42:03.634Z,13.01
2019-05-10T02:43:03.642Z,12.93
2019-05-10T02:44:03.598Z,12.95
2019-05-10T02:45:03.613Z,13.00
2019-05-10T02:46:03.621Z,12.97
2019-05-10T02:47:03.563Z,13.04
2019-05-10T02:48:03.567Z,13.00
2019-05-10T02:49:03.570Z,13.05
2019-05-10T02:50:03.545Z,13.11
2019-05-10T02:51:03.532Z,13.01
2019-05-10T02:52:03.506Z,13.01
2019-05-10T02:53:03.517Z,13.04
2019-05-10T02:54:03.492Z,13.07
2019-05-10T02:55:03.534Z,13.14
2019-05-10T02:56:03.466Z,13.03
2019-05-10T02:57:03.450Z,13.20
2019-05-10T02:58:03.446Z,13.19
2019-05-10T02:59:03.442Z,13.14
2019-05-10T03:00:03.441Z,13.17
2019-05-10T03:01:03.415Z,13.15
2019-05-10T03:02:03.427Z,13.22
2019-05-10T03:03:03.393Z,13.19
2019-05-10T03:04:03.371Z,13.23
2019-05-10T03:05:03.394Z,13.29
2019-05-10T03:06:03.380Z,13.28
2019-05-10T03:07:03.368Z,13.28
2019-05-10T03:08:03.335Z,13.26
2019-05-10T03:09:03.334Z,13.22
2019-05-10T03:10:03.311Z,13.30
2019-05-10T03:11:03.329Z,13.32
2019-05-10T03:12:03.288Z,13.38
2019-05-10T03:13:03.285Z,13.33
2019-05-10T03:14:03.266Z,13.19
2019-05-10T03:15:03.257Z,13.20
2019-05-10T03:16:03.278Z,13.32
2019-05-10T03:17:03.227Z,13.32
2019-05-10T03:18:03.221Z,13.33
2019-05-10T03:19:03.208Z,13.38
2019-05-10T03:20:03.197Z,13.38
2019-05-10T03:21:03.219Z,13.45
2019-05-10T03:22:03.179Z,13.41
2019-05-10T03:23:03.165Z,13.44
2019-05-10T03:24:03.153Z,13.42
2019-05-10T03:25:03.137Z,13.42
2019-05-10T03:26:03.142Z,13.42
2019-05-10T03:27:03.128Z,13.48
2019-05-10T03:28:03.128Z,13.46
2019-05-10T03:29:03.102Z,13.49
2019-05-10T03:30:03.119Z,13.44
2019-05-10T03:31:03.111Z,13.36
2019-05-10T03:32:03.069Z,13.33
2019-05-10T03:33:03.221Z,13.30
2019-05-10T03:34:03.038Z,13.17
2019-05-10T03:35:03.080Z,13.26
2019-05-10T03:36:03.061Z,13.14
2019-05-10T03:37:03.007Z,13.10
2019-05-10T03:38:02.990Z,13.03
2019-05-10T03:39:02.988Z,13.03
2019-05-10T03:40:02.979Z,12.96
2019-05-10T03:41:02.998Z,12.92
2019-05-10T03:42:02.958Z,12.92
2019-05-10T03:43:02.961Z,12.96
2019-05-10T03:44:02.934Z,12.92
2019-05-10T03:45:02.928Z,12.85
2019-05-10T03:46:02.939Z,12.93
2019-05-10T03:47:02.889Z,12.93
2019-05-10T03:48:02.880Z,12.82
2019-05-10T03:49:02.901Z,12.90
2019-05-10T03:50:02.856Z,12.82
2019-05-10T03:51:02.864Z,12.86
2019-05-10T03:52:02.835Z,12.85
2019-05-10T03:53:02.885Z,12.93
2019-05-10T03:54:02.812Z,12.86
2019-05-10T03:55:02.807Z,12.89
2019-05-10T03:56:02.816Z,12.97
2019-05-10T03:57:13.396Z,12.97
2019-05-10T03:58:03.779Z,12.95
2019-05-10T03:59:02.763Z,12.93
2019-05-10T04:00:02.777Z,12.87
2019-05-10T04:01:02.773Z,12.87
2019-05-10T04:02:02.830Z,12.86
2019-05-10T04:03:02.719Z,12.86
2019-05-10T04:04:02.713Z,12.89
2019-05-10T04:05:02.696Z,12.85
2019-05-10T04:06:02.715Z,12.82
2019-05-10T04:07:02.680Z,12.85
2019-05-10T04:08:02.670Z,12.82
2019-05-10T04:09:02.699Z,12.74
2019-05-10T04:10:02.632Z,12.87
2019-05-10T04:11:02.634Z,12.87
2019-05-10T04:12:02.630Z,12.83
2019-05-10T04:13:02.617Z,12.87
2019-05-10T04:14:02.606Z,12.90
2019-05-10T04:15:02.582Z,12.89
2019-05-10T04:16:02.565Z,12.93
2019-05-10T04:17:02.593Z,13.00
2019-05-10T04:18:02.560Z,12.87
2019-05-10T04:19:02.537Z,13.05
2019-05-10T04:20:02.542Z,12.97
2019-05-10T04:21:02.512Z,13.01
2019-05-10T04:22:02.527Z,13.01
2019-05-10T04:23:02.490Z,13.03
2019-05-10T04:24:02.486Z,13.03
2019-05-10T04:25:02.481Z,12.96
2019-05-10T04:26:02.455Z,13.00
2019-05-10T04:27:02.468Z,13.04
2019-05-10T04:28:02.436Z,13.04
2019-05-10T04:29:02.425Z,13.03
2019-05-10T04:30:02.426Z,13.05
2019-05-10T04:31:02.402Z,13.07
2019-05-10T04:32:02.416Z,13.10
2019-05-10T04:33:02.378Z,12.97
2019-05-10T04:34:02.370Z,13.17
2019-05-10T04:35:02.367Z,13.17
2019-05-10T04:36:02.346Z,13.14
2019-05-10T04:37:02.367Z,13.12
2019-05-10T04:38:02.324Z,13.19
2019-05-10T04:39:02.320Z,13.14
2019-05-10T04:40:02.305Z,13.22
2019-05-10T04:41:02.308Z,13.26
2019-05-10T04:42:02.294Z,13.20
2019-05-10T04:43:02.271Z,13.29
2019-05-10T04:44:02.255Z,13.20
2019-05-10T04:45:02.244Z,13.29
2019-05-10T04:46:02.243Z,13.23
2019-05-10T04:47:02.239Z,13.22
2019-05-10T04:48:02.216Z,13.23
2019-05-10T04:49:02.212Z,13.28
2019-05-10T04:50:02.198Z,13.19
2019-05-10T04:51:02.180Z,13.22
2019-05-10T04:52:02.185Z,13.29
2019-05-10T04:53:02.156Z,13.25
2019-05-10T04:54:02.137Z,13.25
2019-05-10T04:55:02.138Z,13.14
2019-05-10T04:56:02.124Z,13.23
2019-05-10T04:57:02.139Z,13.22
2019-05-10T04:58:02.098Z,13.20
2019-05-10T04:59:02.094Z,13.15
2019-05-10T05:00:02.104Z,13.14
2019-05-10T05:01:02.074Z,13.19
2019-05-10T05:02:02.071Z,13.17
2019-05-10T05:03:02.047Z,13.14
2019-05-10T05:04:02.043Z,13.23
2019-05-10T05:05:02.025Z,13.20
2019-05-10T05:06:02.016Z,13.20
2019-05-10T05:07:02.024Z,13.20
2019-05-10T05:08:02.000Z,13.23
2019-05-10T05:09:01.972Z,13.15
2019-05-10T05:10:01.969Z,13.26
2019-05-10T05:11:01.954Z,13.28
2019-05-10T05:12:01.967Z,13.28
2019-05-10T05:13:01.954Z,13.29
2019-05-10T05:14:01.933Z,13.30
2019-05-10T05:15:01.936Z,13.39
2019-05-10T05:16:01.902Z,13.38
2019-05-10T05:17:01.890Z,13.36
2019-05-10T05:18:01.892Z,13.42
2019-05-10T05:19:01.861Z,13.45
2019-05-10T05:20:01.850Z,13.41
2019-05-10T05:21:01.836Z,13.42
2019-05-10T05:22:03.678Z,13.51
2019-05-10T05:23:01.867Z,13.55
2019-05-10T05:24:01.806Z,13.46
2019-05-10T05:25:03.831Z,13.46
2019-05-10T05:26:01.795Z,13.52
2019-05-10T05:27:01.980Z,13.51
2019-05-10T05:28:07.795Z,13.55
2019-05-10T05:29:02.754Z,13.59
2019-05-10T05:30:01.743Z,13.49
2019-05-10T05:31:01.763Z,13.69
2019-05-10T05:32:03.616Z,13.59
2019-05-10T05:33:01.744Z,13.59
2019-05-10T05:34:04.960Z,13.64
2019-05-10T05:35:01.698Z,13.60
2019-05-10T05:36:02.474Z,13.66
2019-05-10T05:37:01.663Z,13.63
2019-05-10T05:38:01.681Z,13.63
2019-05-10T05:39:01.649Z,13.63
2019-05-10T05:40:01.769Z,13.59
2019-05-10T05:41:01.623Z,13.57
2019-05-10T05:42:01.605Z,13.59
2019-05-10T05:43:02.680Z,13.62
2019-05-10T05:44:02.584Z,13.66
2019-05-10T05:45:01.573Z,13.63
2019-05-10T05:46:01.570Z,13.64
2019-05-10T05:47:04.632Z,13.64
2019-05-10T05:48:01.576Z,13.69
2019-05-10T05:49:01.524Z,13.70
2019-05-10T05:50:01.521Z,13.75
2019-05-10T05:51:01.504Z,13.75
2019-05-10T05:52:01.497Z,13.82
2019-05-10T05:53:01.513Z,13.82
2019-05-10T05:54:03.928Z,13.88
2019-05-10T05:55:01.464Z,13.97
2019-05-10T05:56:03.096Z,14.02
2019-05-10T05:57:02.440Z,14.02
2019-05-10T05:58:04.746Z,14.18
2019-05-10T05:59:02.422Z,14.21
2019-05-10T06:00:03.890Z,14.27
2019-05-10T06:01:01.394Z,14.27
2019-05-10T06:02:07.659Z,14.37
2019-05-10T06:03:02.392Z,14.46
2019-05-10T06:04:06.213Z,14.57
2019-05-10T06:05:02.365Z,14.62
2019-05-10T06:06:01.349Z,14.77
2019-05-10T06:07:01.330Z,14.91
2019-05-10T06:08:01.421Z,14.98
2019-05-10T06:09:01.711Z,15.11
2019-05-10T06:10:01.293Z,15.17
2019-05-10T06:11:01.297Z,15.36
2019-05-10T06:12:01.272Z,15.49
2019-05-10T06:13:01.279Z,15.56
2019-05-10T06:14:03.624Z,15.60
2019-05-10T06:15:02.248Z,15.65
2019-05-10T06:16:06.241Z,15.65
2019-05-10T06:17:02.213Z,15.57
2019-05-10T06:18:03.445Z,15.54
2019-05-10T06:19:02.194Z,15.59
2019-05-10T06:20:06.102Z,15.65
2019-05-10T06:21:02.174Z,15.64
2019-05-10T06:22:05.073Z,15.54
2019-05-10T06:23:06.739Z,15.47
2019-05-10T06:24:07.320Z,15.39
2019-05-10T06:25:02.134Z,15.38
2019-05-10T06:26:01.134Z,15.34
2019-05-10T06:27:03.396Z,15.29
2019-05-10T06:28:01.108Z,15.34
2019-05-10T06:29:04.247Z,15.35
2019-05-10T06:30:01.072Z,15.35
2019-05-10T06:31:01.064Z,15.35
2019-05-10T06:32:01.056Z,15.32
2019-05-10T06:33:11.940Z,15.44
2019-05-10T06:34:02.031Z,15.47
2019-05-10T06:35:01.020Z,15.39
2019-05-10T06:36:01.002Z,15.41
2019-05-10T06:37:01.104Z,15.46
2019-05-10T06:38:01.003Z,15.35
2019-05-10T06:39:00.972Z,15.35
2019-05-10T06:40:00.961Z,15.35
2019-05-10T06:41:00.951Z,15.36
2019-05-10T06:42:00.940Z,15.31
2019-05-10T06:43:00.996Z,15.35
2019-05-10T06:44:00.926Z,15.32
2019-05-10T06:45:04.327Z,15.28
2019-05-10T06:46:01.890Z,15.28
2019-05-10T06:47:02.149Z,15.36
2019-05-10T06:48:01.889Z,15.34
2019-05-10T06:49:07.100Z,15.41
2019-05-10T06:50:01.848Z,15.43
2019-05-10T06:51:02.929Z,15.43
2019-05-10T06:52:01.824Z,15.44
2019-05-10T06:54:01.827Z,15.36
2019-05-10T06:55:00.788Z,15.31
2019-05-10T06:56:00.782Z,15.28
2019-05-10T06:57:00.784Z,15.28
2019-05-10T06:58:01.011Z,15.36
2019-05-10T06:59:13.110Z,15.27
2019-05-10T07:00:06.149Z,15.23
2019-05-10T07:01:00.723Z,15.29
2019-05-10T07:02:00.711Z,15.28
2019-05-10T07:03:00.705Z,15.46
2019-05-10T07:04:00.710Z,15.43
2019-05-10T07:05:00.680Z,15.47
2019-05-10T07:06:00.675Z,15.53
2019-05-10T07:07:00.665Z,15.46
2019-05-10T07:08:14.050Z,15.57
2019-05-10T07:09:01.662Z,15.62
2019-05-10T07:10:10.024Z,15.72
2019-05-10T07:11:01.613Z,15.75
2019-05-10T07:12:00.606Z,15.74
2019-05-10T07:13:03.780Z,15.75
2019-05-10T07:14:01.782Z,15.72
2019-05-10T07:15:03.535Z,15.62
2019-05-10T07:16:00.556Z,15.74
2019-05-10T07:17:02.529Z,15.82
2019-05-10T07:18:00.546Z,15.83
2019-05-10T07:19:02.153Z,16.04
2019-05-10T07:20:00.514Z,16.07
2019-05-10T07:21:05.938Z,16.05
2019-05-10T07:22:01.523Z,16.05
2019-05-10T07:23:06.099Z,16.01
2019-05-10T07:24:01.524Z,16.15
2019-05-10T07:25:04.281Z,16.20
2019-05-10T07:26:00.445Z,16.21
2019-05-10T07:27:02.099Z,16.33
2019-05-10T07:28:00.439Z,16.31
2019-05-10T07:29:00.785Z,16.33
2019-05-10T07:30:00.406Z,16.34
2019-05-10T07:31:00.399Z,16.43
2019-05-10T07:32:00.395Z,16.60
2019-05-10T07:33:02.120Z,16.56
2019-05-10T07:34:00.378Z,16.60
2019-05-10T07:35:01.016Z,16.48
2019-05-10T07:36:00.355Z,16.63
2019-05-10T07:37:01.956Z,16.50
2019-05-10T07:38:00.319Z,16.58
2019-05-10T07:39:02.795Z,16.61
2019-05-10T07:40:03.390Z,16.49
2019-05-10T07:41:00.287Z,16.41
2019-05-10T07:42:06.396Z,16.35
2019-05-10T07:43:01.254Z,16.38
2019-05-10T07:44:07.492Z,16.31
2019-05-10T07:45:01.232Z,16.41
2019-05-10T07:46:06.553Z,16.38
2019-05-10T07:47:01.217Z,16.20
2019-05-10T07:48:02.427Z,16.04
2019-05-10T07:49:01.228Z,15.92
2019-05-10T07:50:03.786Z,15.80
2019-05-10T07:51:01.169Z,15.76
2019-05-10T07:52:02.144Z,15.71
2019-05-10T07:53:00.143Z,15.68
2019-05-10T07:54:04.585Z,15.71
2019-05-10T07:55:00.147Z,15.60
2019-05-10T07:56:05.900Z,15.47
2019-05-10T07:57:01.104Z,15.57
2019-05-10T07:58:05.106Z,15.67
2019-05-10T07:59:01.087Z,15.71
2019-05-10T08:00:03.771Z,15.83
2019-05-10T08:01:01.062Z,15.90
2019-05-10T08:02:05.883Z,16.00
2019-05-10T08:03:11.563Z,16.05
2019-05-10T08:04:01.017Z,16.02
2019-05-10T08:05:04.790Z,16.05
2019-05-10T08:06:02.125Z,16.21
2019-05-10T08:06:59.990Z,16.30
2019-05-10T08:07:59.986Z,16.42
2019-05-10T08:09:02.001Z,16.68
2019-05-10T08:10:04.615Z,16.63
2019-05-10T08:10:59.940Z,16.60
2019-05-10T08:12:04.932Z,16.43
2019-05-10T08:13:03.493Z,16.41
2019-05-10T08:14:06.289Z,16.21
2019-05-10T08:15:00.920Z,16.14
2019-05-10T08:15:59.910Z,16.27
2019-05-10T08:17:05.964Z,16.24
2019-05-10T08:18:00.874Z,16.15
2019-05-10T08:19:00.899Z,16.23
2019-05-10T08:19:59.869Z,16.27
2019-05-10T08:21:05.128Z,16.28
2019-05-10T08:22:04.315Z,16.56
2019-05-10T08:22:59.813Z,16.76
2019-05-10T08:24:05.177Z,16.97
2019-05-10T08:25:02.314Z,16.91
2019-05-10T08:25:59.776Z,16.88
2019-05-10T08:27:07.969Z,16.88
2019-05-10T08:28:03.416Z,16.96
2019-05-10T08:29:01.976Z,16.97
2019-05-10T08:30:28.479Z,17.00
2019-05-10T08:31:02.488Z,17.23
2019-05-10T08:31:59.716Z,17.40
2019-05-10T08:33:00.244Z,17.36
2019-05-10T08:34:02.206Z,17.38
2019-05-10T08:34:59.704Z,17.41
2019-05-10T08:36:05.030Z,17.68
2019-05-10T08:37:02.580Z,17.77
2019-05-10T08:37:59.645Z,17.70
2019-05-10T08:39:07.720Z,17.74
2019-05-10T08:40:03.004Z,17.62
2019-05-10T08:40:59.609Z,17.55
2019-05-10T08:42:08.826Z,17.59
2019-05-10T08:43:07.202Z,17.16
2019-05-10T08:44:04.583Z,16.97
2019-05-10T08:45:05.349Z,16.89
2019-05-10T08:46:02.456Z,16.85
2019-05-10T08:46:59.542Z,16.81
2019-05-10T08:48:04.996Z,16.81
2019-05-10T08:49:02.056Z,16.85
2019-05-10T08:50:12.062Z,16.97
2019-05-10T08:51:05.594Z,16.97
2019-05-10T08:52:02.496Z,16.94
2019-05-10T08:53:04.292Z,16.96
2019-05-10T08:54:01.759Z,17.00
2019-05-10T08:54:59.474Z,17.06
2019-05-10T08:56:01.954Z,17.06
2019-05-10T08:57:01.991Z,17.07
2019-05-10T08:58:02.830Z,17.06
2019-05-10T08:58:59.408Z,17.34
2019-05-10T09:00:06.953Z,17.41
2019-05-10T09:01:15.173Z,17.16
2019-05-10T09:02:02.125Z,17.21
2019-05-10T09:03:00.971Z,17.54
2019-05-10T09:04:06.212Z,17.78
2019-05-10T09:05:02.644Z,17.75
2019-05-10T09:06:05.379Z,17.62
2019-05-10T09:07:02.650Z,17.62
2019-05-10T09:08:03.242Z,17.59
2019-05-10T09:09:03.175Z,17.58
2019-05-10T09:10:02.075Z,17.54
2019-05-10T09:10:59.278Z,17.36
2019-05-10T09:12:04.260Z,17.31
2019-05-10T09:13:03.131Z,17.08
2019-05-10T09:13:59.254Z,17.04
2019-05-10T09:15:06.764Z,16.94
2019-05-10T09:16:02.444Z,16.82
2019-05-10T09:17:01.776Z,16.70
2019-05-10T09:18:04.158Z,16.63
2019-05-10T09:19:02.404Z,16.63
2019-05-10T09:19:59.315Z,16.64
2019-05-10T09:21:00.350Z,16.60
2019-05-10T09:22:01.930Z,16.42
2019-05-10T09:22:59.166Z,16.38
2019-05-10T09:24:03.413Z,16.39
2019-05-10T09:25:01.796Z,16.45
2019-05-10T09:26:03.709Z,16.49
2019-05-10T09:27:01.860Z,16.42
2019-05-10T09:28:02.312Z,16.57
2019-05-10T09:29:01.634Z,16.58
2019-05-10T09:29:59.095Z,16.68
2019-05-10T09:31:06.745Z,16.67
2019-05-10T09:32:01.277Z,16.60
2019-05-10T09:33:01.046Z,16.70
2019-05-10T09:34:02.468Z,16.75
2019-05-10T09:34:59.678Z,16.86
2019-05-10T09:36:00.083Z,16.82
2019-05-10T09:36:58.988Z,16.98
2019-05-10T09:37:58.984Z,16.97
2019-05-10T09:38:59.746Z,17.14
2019-05-10T09:40:05.917Z,17.41
2019-05-10T09:41:02.254Z,17.75
2019-05-10T09:41:58.990Z,17.93
2019-05-10T09:42:59.460Z,18.26
2019-05-10T09:43:59.984Z,18.45
2019-05-10T09:44:58.979Z,18.36
2019-05-10T09:45:59.027Z,18.11
2019-05-10T09:46:58.978Z,17.97
2019-05-10T09:47:58.886Z,17.82
2019-05-10T09:49:06.189Z,17.70
2019-05-10T09:50:02.336Z,17.54
2019-05-10T09:51:03.398Z,17.46
2019-05-10T09:52:04.534Z,17.37
2019-05-10T09:52:59.831Z,17.23
2019-05-10T09:54:00.364Z,17.21
2019-05-10T09:54:58.917Z,17.04
2019-05-10T09:56:02.571Z,16.94
2019-05-10T09:56:58.926Z,16.89
2019-05-10T09:57:58.770Z,16.81
2019-05-10T09:58:59.283Z,16.60
2019-05-10T09:59:58.813Z,16.63
2019-05-10T10:01:13.846Z,16.66
2019-05-10T10:01:59.856Z,16.61
2019-05-10T10:03:01.687Z,16.58
2019-05-10T10:04:01.968Z,16.64
2019-05-10T10:04:58.986Z,16.64
2019-05-10T10:06:05.091Z,16.64
2019-05-10T10:07:00.328Z,16.57
2019-05-10T10:07:58.660Z,16.57
2019-05-10T10:09:01.022Z,16.60
2019-05-10T10:09:59.262Z,16.53
2019-05-10T10:11:10.305Z,16.58
2019-05-10T10:12:03.046Z,16.48
2019-05-10T10:13:08.470Z,16.50
2019-05-10T10:14:02.125Z,16.35
2019-05-10T10:14:58.712Z,16.33
2019-05-10T10:15:58.620Z,16.33
2019-05-10T10:17:02.905Z,16.41
2019-05-10T10:17:58.595Z,16.34
2019-05-10T10:18:58.551Z,16.56
2019-05-10T10:19:58.581Z,16.63
2019-05-10T10:20:58.535Z,16.70
2019-05-10T10:21:58.488Z,16.96
2019-05-10T10:22:58.546Z,17.06
2019-05-10T10:24:00.386Z,17.19
2019-05-10T10:25:00.652Z,17.18
2019-05-10T10:25:58.457Z,17.18
2019-05-10T10:26:58.425Z,17.16
2019-05-10T10:27:58.450Z,17.11
2019-05-10T10:29:00.172Z,17.03
2019-05-10T10:29:58.396Z,16.93
2019-05-10T10:31:04.766Z,16.79
2019-05-10T10:31:59.389Z,16.75
2019-05-10T10:32:58.461Z,16.67
2019-05-10T10:34:02.646Z,17.04
2019-05-10T10:34:58.350Z,17.77
2019-05-10T10:36:04.816Z,17.41
2019-05-10T10:36:59.389Z,17.36
2019-05-10T10:38:02.771Z,17.07
2019-05-10T10:38:59.635Z,16.96
2019-05-10T10:40:00.669Z,16.75
2019-05-10T10:41:00.288Z,16.60
2019-05-10T10:42:02.566Z,16.43
2019-05-10T10:42:59.348Z,16.43
2019-05-10T10:43:58.514Z,16.35
2019-05-10T10:44:58.817Z,16.14
2019-05-10T10:45:58.258Z,16.02
2019-05-10T10:46:58.339Z,16.15
2019-05-10T10:48:02.365Z,16.20
2019-05-10T10:48:59.181Z,16.38
2019-05-10T10:50:02.890Z,16.34
2019-05-10T10:50:59.215Z,16.64
2019-05-10T10:51:58.156Z,16.63
2019-05-10T10:52:58.135Z,16.81
2019-05-10T10:53:58.401Z,16.79
2019-05-10T10:54:58.114Z,16.94
2019-05-10T10:56:03.595Z,16.96
2019-05-10T10:56:59.722Z,16.97
2019-05-10T10:57:58.085Z,17.08
2019-05-10T10:58:58.361Z,17.04
2019-05-10T10:59:58.064Z,17.00
2019-05-10T11:00:58.049Z,16.97
2019-05-10T11:02:28.028Z,16.93
2019-05-10T11:02:59.023Z,16.83
2019-05-10T11:04:03.639Z,16.91
2019-05-10T11:04:59.007Z,16.83
2019-05-10T11:05:58.014Z,16.88
2019-05-10T11:07:09.890Z,16.82
2019-05-10T11:08:01.059Z,16.86
2019-05-10T11:08:57.962Z,16.86
2019-05-10T11:10:08.403Z,16.83
2019-05-10T11:11:00.528Z,16.83
2019-05-10T11:11:57.929Z,17.03
2019-05-10T11:13:04.539Z,17.15
2019-05-10T11:14:06.923Z,17.15
2019-05-10T11:15:00.970Z,17.30
2019-05-10T11:15:59.053Z,17.38
2019-05-10T11:17:01.070Z,17.38
2019-05-10T11:18:00.331Z,17.48
2019-05-10T11:18:57.855Z,17.54
2019-05-10T11:19:57.844Z,17.68
2019-05-10T11:20:57.826Z,17.68
2019-05-10T11:22:02.247Z,17.63
2019-05-10T11:22:58.799Z,17.71
2019-05-10T11:23:57.790Z,17.77
2019-05-10T11:25:01.084Z,17.84
2019-05-10T11:26:01.206Z,17.90
2019-05-10T11:26:57.776Z,17.89
2019-05-10T11:27:59.225Z,17.86
2019-05-10T11:28:57.735Z,17.78
2019-05-10T11:29:57.726Z,17.84
2019-05-10T11:30:57.720Z,17.92
2019-05-10T11:32:12.216Z,18.29
2019-05-10T11:33:00.489Z,19.11
2019-05-10T11:34:00.945Z,19.74
2019-05-10T11:34:57.671Z,19.84
2019-05-10T11:36:02.923Z,19.63
2019-05-10T11:36:58.663Z,19.33
2019-05-10T11:37:57.634Z,19.08
2019-05-10T11:38:58.749Z,18.78
2019-05-10T11:39:57.613Z,18.69
2019-05-10T11:40:57.604Z,18.55
2019-05-10T11:42:02.266Z,18.57
2019-05-10T11:42:58.598Z,18.33
2019-05-10T11:44:03.521Z,18.17
2019-05-10T11:45:00.640Z,18.20
2019-05-10T11:45:57.547Z,18.05
2019-05-10T11:46:57.567Z,17.92
2019-05-10T11:47:59.667Z,17.70
2019-05-10T11:48:57.520Z,17.55
2019-05-10T11:49:57.516Z,17.41
2019-05-10T11:50:57.493Z,17.40
2019-05-10T11:51:58.850Z,17.48
2019-05-10T11:52:57.477Z,17.49
2019-05-10T11:53:59.652Z,17.66
2019-05-10T11:54:57.450Z,17.81
2019-05-10T11:55:57.433Z,17.95
2019-05-10T11:56:58.607Z,18.17
2019-05-10T11:58:02.942Z,18.14
2019-05-10T11:59:02.169Z,18.65
2019-05-10T11:59:57.400Z,19.23
2019-05-10T12:01:02.431Z,19.36
2019-05-10T12:02:00.553Z,19.55
2019-05-10T12:03:11.299Z,19.55
2019-05-10T12:03:58.346Z,19.62
2019-05-10T12:05:01.224Z,19.69
2019-05-10T12:06:58.342Z,19.84
2019-05-10T12:07:57.305Z,20.36
2019-05-10T12:09:02.104Z,20.55
2019-05-10T12:10:07.519Z,21.21
2019-05-10T12:11:10.236Z,20.79
2019-05-10T12:11:58.277Z,21.10
2019-05-10T12:13:08.550Z,20.95
2019-05-10T12:13:58.247Z,20.89
2019-05-10T12:14:57.233Z,21.06
2019-05-10T12:15:57.220Z,20.73
2019-05-10T12:16:57.222Z,20.31
2019-05-10T12:17:59.601Z,20.38
2019-05-10T12:20:02.237Z,20.52
2019-05-10T12:21:08.874Z,20.28
2019-05-10T12:21:58.173Z,19.92
2019-05-10T12:22:57.155Z,19.71
2019-05-10T12:25:20.777Z,19.32
2019-05-10T12:26:05.084Z,19.77
2019-05-10T12:26:35.813Z,20.48
2019-05-10T12:27:12.579Z,19.10
2019-05-10T12:27:23.844Z,18.88
2019-05-10T12:27:58.085Z,18.69
2019-05-10T12:29:02.647Z,18.45
2019-05-10T12:30:00.682Z,18.14
2019-05-10T12:30:58.053Z,18.17
2019-05-10T12:31:57.238Z,18.02
2019-05-10T12:33:05.013Z,17.77
2019-05-10T12:34:02.409Z,17.64
2019-05-10T12:34:58.003Z,17.51
2019-05-10T12:35:56.994Z,17.46
2019-05-10T12:36:57.571Z,17.12
2019-05-10T12:37:57.973Z,17.04
2019-05-10T12:38:58.995Z,16.67
2019-05-10T12:40:08.965Z,16.48
2019-05-10T12:40:57.944Z,16.31
2019-05-10T12:41:56.963Z,16.15
2019-05-10T12:42:56.920Z,15.97
2019-05-10T12:44:02.852Z,15.90
2019-05-10T12:44:57.896Z,15.83
2019-05-10T12:45:56.887Z,15.84
2019-05-10T12:46:56.968Z,15.86
2019-05-10T12:47:56.867Z,15.92
2019-05-10T12:48:56.859Z,16.04
2019-05-10T12:50:02.176Z,16.43
2019-05-10T12:51:04.229Z,16.48
2019-05-10T12:51:57.843Z,16.39
2019-05-10T12:53:14.318Z,16.39
2019-05-10T12:53:57.793Z,16.39